sensor_id;sensor_type;location;lat;lon;timestamp;temperature;humidity
28532;DHT22;15738;44.860;10.066;2023-04-22T00:01:32;14.30;99.90
28532;DHT22;15738;44.860;10.066;2023-04-22T00:04:18;14.20;99.90
28532;DHT22;15738;44.860;10.066;2023-04-22T00:07:06;14.20;99.90
28532;DHT22;15738;44.860;10.066;2023-04-22T00:09:51;14.20;99.90
28532;DHT22;15738;44.860;10.066;2023-04-22T00:12:37;14.20;99.90
28532;DHT22;15738;44.860;10.066;2023-04-22T00:15:23;14.20;99.90
28532;DHT22;15738;44.860;10.066;2023-04-22T00:18:09;14.20;99.90
28532;DHT22;15738;44.860;10.066;2023-04-22T00:20:58;14.20;99.90
28532;DHT22;15738;44.860;10.066;2023-04-22T00:23:44;14.10;99.90
28532;DHT22;15738;44.860;10.066;2023-04-22T00:26:29;14.20;99.90
28532;DHT22;15738;44.860;10.066;2023-04-22T00:29:15;14.10;99.90
28532;DHT22;15738;44.860;10.066;2023-04-22T00:32:01;14.10;99.90
28532;DHT22;15738;44.860;10.066;2023-04-22T00:34:46;14.10;99.90
28532;DHT22;15738;44.860;10.066;2023-04-22T00:37:32;14.10;99.90
28532;DHT22;15738;44.860;10.066;2023-04-22T00:40:19;14.10;99.90
28532;DHT22;15738;44.860;10.066;2023-04-22T00:43:04;14.10;99.90
28532;DHT22;15738;44.860;10.066;2023-04-22T00:45:50;14.10;99.90
28532;DHT22;15738;44.860;10.066;2023-04-22T00:48:36;14.10;99.90
28532;DHT22;15738;44.860;10.066;2023-04-22T00:51:22;14.10;99.90
28532;DHT22;15738;44.860;10.066;2023-04-22T00:54:08;14.00;99.90
28532;DHT22;15738;44.860;10.066;2023-04-22T00:56:54;14.10;99.90
28532;DHT22;15738;44.860;10.066;2023-04-22T00:59:40;14.00;99.90
28532;DHT22;15738;44.860;10.066;2023-04-22T01:02:27;14.00;99.90
28532;DHT22;15738;44.860;10.066;2023-04-22T01:05:15;14.00;99.90
28532;DHT22;15738;44.860;10.066;2023-04-22T01:08:01;14.00;99.90
28532;DHT22;15738;44.860;10.066;2023-04-22T01:10:47;14.00;99.90
28532;DHT22;15738;44.860;10.066;2023-04-22T01:13:32;14.00;99.90
28532;DHT22;15738;44.860;10.066;2023-04-22T01:16:20;14.00;99.90
28532;DHT22;15738;44.860;10.066;2023-04-22T01:19:06;13.90;99.90
28532;DHT22;15738;44.860;10.066;2023-04-22T01:21:52;13.90;99.90
28532;DHT22;15738;44.860;10.066;2023-04-22T01:24:40;14.00;99.90
28532;DHT22;15738;44.860;10.066;2023-04-22T01:27:25;13.90;99.90
28532;DHT22;15738;44.860;10.066;2023-04-22T01:30:11;13.90;99.90
28532;DHT22;15738;44.860;10.066;2023-04-22T01:32:57;13.90;99.90
28532;DHT22;15738;44.860;10.066;2023-04-22T01:35:43;14.00;99.90
28532;DHT22;15738;44.860;10.066;2023-04-22T01:38:28;13.90;99.90
28532;DHT22;15738;44.860;10.066;2023-04-22T01:41:17;14.00;99.90
28532;DHT22;15738;44.860;10.066;2023-04-22T01:44:04;14.00;99.90
28532;DHT22;15738;44.860;10.066;2023-04-22T01:46:50;14.00;99.90
28532;DHT22;15738;44.860;10.066;2023-04-22T01:49:36;14.00;99.90
28532;DHT22;15738;44.860;10.066;2023-04-22T01:52:22;14.00;99.90
28532;DHT22;15738;44.860;10.066;2023-04-22T01:55:08;14.00;99.90
28532;DHT22;15738;44.860;10.066;2023-04-22T01:57:54;14.00;99.90
28532;DHT22;15738;44.860;10.066;2023-04-22T02:00:40;14.00;99.90
28532;DHT22;15738;44.860;10.066;2023-04-22T02:03:26;13.90;99.90
28532;DHT22;15738;44.860;10.066;2023-04-22T02:06:13;13.90;99.90
28532;DHT22;15738;44.860;10.066;2023-04-22T02:08:58;13.90;99.90
28532;DHT22;15738;44.860;10.066;2023-04-22T02:11:44;13.90;99.90
28532;DHT22;15738;44.860;10.066;2023-04-22T02:14:30;13.80;99.90
28532;DHT22;15738;44.860;10.066;2023-04-22T02:17:20;13.80;99.90
28532;DHT22;15738;44.860;10.066;2023-04-22T02:20:06;13.70;99.90
28532;DHT22;15738;44.860;10.066;2023-04-22T02:22:52;13.70;99.90
28532;DHT22;15738;44.860;10.066;2023-04-22T02:25:37;13.70;99.90
28532;DHT22;15738;44.860;10.066;2023-04-22T02:28:24;13.60;99.90
28532;DHT22;15738;44.860;10.066;2023-04-22T02:31:09;13.50;99.90
28532;DHT22;15738;44.860;10.066;2023-04-22T02:33:57;13.50;99.90
28532;DHT22;15738;44.860;10.066;2023-04-22T02:36:43;13.50;99.90
28532;DHT22;15738;44.860;10.066;2023-04-22T02:39:29;13.50;99.90
28532;DHT22;15738;44.860;10.066;2023-04-22T02:42:16;13.50;99.90
28532;DHT22;15738;44.860;10.066;2023-04-22T02:45:01;13.40;99.90
28532;DHT22;15738;44.860;10.066;2023-04-22T02:47:47;13.40;99.90
28532;DHT22;15738;44.860;10.066;2023-04-22T02:50:33;13.40;99.90
28532;DHT22;15738;44.860;10.066;2023-04-22T02:53:18;13.40;99.90
28532;DHT22;15738;44.860;10.066;2023-04-22T02:56:04;13.30;99.90
28532;DHT22;15738;44.860;10.066;2023-04-22T02:58:50;13.30;99.90
28532;DHT22;15738;44.860;10.066;2023-04-22T03:01:35;13.20;99.90
28532;DHT22;15738;44.860;10.066;2023-04-22T03:04:24;13.20;99.90
28532;DHT22;15738;44.860;10.066;2023-04-22T03:07:11;13.20;99.90
28532;DHT22;15738;44.860;10.066;2023-04-22T03:09:57;13.20;99.90
28532;DHT22;15738;44.860;10.066;2023-04-22T03:12:43;13.20;99.90
28532;DHT22;15738;44.860;10.066;2023-04-22T03:15:29;13.10;99.90
28532;DHT22;15738;44.860;10.066;2023-04-22T03:18:15;13.10;99.90
28532;DHT22;15738;44.860;10.066;2023-04-22T03:21:02;13.10;99.90
28532;DHT22;15738;44.860;10.066;2023-04-22T03:23:48;13.00;99.90
28532;DHT22;15738;44.860;10.066;2023-04-22T03:26:33;13.00;99.90
28532;DHT22;15738;44.860;10.066;2023-04-22T03:29:20;12.90;99.90
28532;DHT22;15738;44.860;10.066;2023-04-22T03:32:05;13.00;99.90
28532;DHT22;15738;44.860;10.066;2023-04-22T03:34:53;12.90;99.90
28532;DHT22;15738;44.860;10.066;2023-04-22T03:37:38;12.90;99.90
28532;DHT22;15738;44.860;10.066;2023-04-22T03:40:26;12.80;99.90
28532;DHT22;15738;44.860;10.066;2023-04-22T03:43:12;12.80;99.90
28532;DHT22;15738;44.860;10.066;2023-04-22T03:45:58;12.70;99.90
28532;DHT22;15738;44.860;10.066;2023-04-22T03:48:46;12.70;99.90
28532;DHT22;15738;44.860;10.066;2023-04-22T03:51:41;12.80;99.90
28532;DHT22;15738;44.860;10.066;2023-04-22T03:54:30;12.70;99.90
28532;DHT22;15738;44.860;10.066;2023-04-22T03:57:19;12.70;99.90
28532;DHT22;15738;44.860;10.066;2023-04-22T04:00:06;12.70;99.90
28532;DHT22;15738;44.860;10.066;2023-04-22T04:02:58;12.70;99.90
28532;DHT22;15738;44.860;10.066;2023-04-22T04:05:45;12.70;99.90
28532;DHT22;15738;44.860;10.066;2023-04-22T04:08:30;12.70;99.90
28532;DHT22;15738;44.860;10.066;2023-04-22T04:11:17;12.70;99.90
28532;DHT22;15738;44.860;10.066;2023-04-22T04:14:03;12.70;99.90
28532;DHT22;15738;44.860;10.066;2023-04-22T04:16:57;12.70;99.90
28532;DHT22;15738;44.860;10.066;2023-04-22T04:19:49;12.70;99.90
28532;DHT22;15738;44.860;10.066;2023-04-22T04:22:35;12.80;99.90
28532;DHT22;15738;44.860;10.066;2023-04-22T04:25:23;12.80;99.90
28532;DHT22;15738;44.860;10.066;2023-04-22T04:28:09;12.80;99.90
28532;DHT22;15738;44.860;10.066;2023-04-22T04:30:55;12.90;99.90
28532;DHT22;15738;44.860;10.066;2023-04-22T04:33:41;12.80;99.90
28532;DHT22;15738;44.860;10.066;2023-04-22T04:36:27;12.90;99.90
28532;DHT22;15738;44.860;10.066;2023-04-22T04:39:23;12.90;99.90
28532;DHT22;15738;44.860;10.066;2023-04-22T04:42:10;13.00;99.90
28532;DHT22;15738;44.860;10.066;2023-04-22T04:45:05;12.90;99.90
28532;DHT22;15738;44.860;10.066;2023-04-22T04:47:52;12.90;99.90
28532;DHT22;15738;44.860;10.066;2023-04-22T04:50:44;12.80;99.90
28532;DHT22;15738;44.860;10.066;2023-04-22T04:53:30;12.80;99.90
28532;DHT22;15738;44.860;10.066;2023-04-22T04:56:15;12.70;99.90
28532;DHT22;15738;44.860;10.066;2023-04-22T04:59:02;12.70;99.90
28532;DHT22;15738;44.860;10.066;2023-04-22T05:01:50;12.70;99.90
28532;DHT22;15738;44.860;10.066;2023-04-22T05:04:35;12.70;99.90
28532;DHT22;15738;44.860;10.066;2023-04-22T05:07:22;12.70;99.90
28532;DHT22;15738;44.860;10.066;2023-04-22T05:10:12;12.70;99.90
28532;DHT22;15738;44.860;10.066;2023-04-22T05:13:15;12.60;99.90
28532;DHT22;15738;44.860;10.066;2023-04-22T05:16:03;12.70;99.90
28532;DHT22;15738;44.860;10.066;2023-04-22T05:18:49;12.70;99.90
28532;DHT22;15738;44.860;10.066;2023-04-22T05:21:34;12.80;99.90
28532;DHT22;15738;44.860;10.066;2023-04-22T05:24:28;12.90;99.90
28532;DHT22;15738;44.860;10.066;2023-04-22T05:27:16;13.30;99.90
28532;DHT22;15738;44.860;10.066;2023-04-22T05:30:02;13.50;99.90
28532;DHT22;15738;44.860;10.066;2023-04-22T05:32:51;13.80;99.90
28532;DHT22;15738;44.860;10.066;2023-04-22T05:35:36;14.00;99.90
28532;DHT22;15738;44.860;10.066;2023-04-22T05:38:22;14.00;99.90
28532;DHT22;15738;44.860;10.066;2023-04-22T05:41:09;14.00;99.90
28532;DHT22;15738;44.860;10.066;2023-04-22T05:43:55;14.00;99.90
28532;DHT22;15738;44.860;10.066;2023-04-22T05:46:41;14.20;99.90
28532;DHT22;15738;44.860;10.066;2023-04-22T05:49:27;14.40;99.90
28532;DHT22;15738;44.860;10.066;2023-04-22T05:52:31;14.40;99.90
28532;DHT22;15738;44.860;10.066;2023-04-22T05:55:27;14.60;99.90
28532;DHT22;15738;44.860;10.066;2023-04-22T05:58:12;14.80;99.90
28532;DHT22;15738;44.860;10.066;2023-04-22T06:01:07;14.90;99.90
28532;DHT22;15738;44.860;10.066;2023-04-22T06:04:12;15.00;99.90
28532;DHT22;15738;44.860;10.066;2023-04-22T06:06:58;15.10;99.90
28532;DHT22;15738;44.860;10.066;2023-04-22T06:09:44;15.30;99.90
28532;DHT22;15738;44.860;10.066;2023-04-22T06:12:35;15.30;99.90
28532;DHT22;15738;44.860;10.066;2023-04-22T06:15:27;15.80;99.90
28532;DHT22;15738;44.860;10.066;2023-04-22T06:18:13;15.70;99.90
28532;DHT22;15738;44.860;10.066;2023-04-22T06:20:59;15.90;99.90
28532;DHT22;15738;44.860;10.066;2023-04-22T06:23:44;16.00;99.90
28532;DHT22;15738;44.860;10.066;2023-04-22T06:26:30;16.30;99.90
28532;DHT22;15738;44.860;10.066;2023-04-22T06:29:16;16.50;99.90
28532;DHT22;15738;44.860;10.066;2023-04-22T06:32:02;16.70;99.90
28532;DHT22;15738;44.860;10.066;2023-04-22T06:34:48;17.00;99.90
28532;DHT22;15738;44.860;10.066;2023-04-22T06:37:33;17.20;99.90
28532;DHT22;15738;44.860;10.066;2023-04-22T06:40:21;17.40;99.90
28532;DHT22;15738;44.860;10.066;2023-04-22T06:43:46;17.50;99.90
28532;DHT22;15738;44.860;10.066;2023-04-22T06:46:52;17.70;99.90
28532;DHT22;15738;44.860;10.066;2023-04-22T06:50:01;18.00;99.90
28532;DHT22;15738;44.860;10.066;2023-04-22T06:52:53;18.10;99.90
28532;DHT22;15738;44.860;10.066;2023-04-22T06:55:39;18.40;99.90
28532;DHT22;15738;44.860;10.066;2023-04-22T06:58:24;18.50;99.90
28532;DHT22;15738;44.860;10.066;2023-04-22T07:01:11;18.70;99.90
28532;DHT22;15738;44.860;10.066;2023-04-22T07:03:58;19.00;99.90
28532;DHT22;15738;44.860;10.066;2023-04-22T07:06:44;19.00;99.90
28532;DHT22;15738;44.860;10.066;2023-04-22T07:09:30;19.00;99.90
28532;DHT22;15738;44.860;10.066;2023-04-22T07:12:16;19.30;99.90
28532;DHT22;15738;44.860;10.066;2023-04-22T07:15:02;19.40;99.90
28532;DHT22;15738;44.860;10.066;2023-04-22T07:17:47;19.60;99.90
28532;DHT22;15738;44.860;10.066;2023-04-22T07:20:33;19.70;99.90
28532;DHT22;15738;44.860;10.066;2023-04-22T07:23:19;19.90;99.90
28532;DHT22;15738;44.860;10.066;2023-04-22T07:26:05;20.00;99.90
28532;DHT22;15738;44.860;10.066;2023-04-22T07:28:51;20.10;99.90
28532;DHT22;15738;44.860;10.066;2023-04-22T07:31:37;20.30;99.90
28532;DHT22;15738;44.860;10.066;2023-04-22T07:34:23;20.40;99.90
28532;DHT22;15738;44.860;10.066;2023-04-22T07:37:09;20.40;99.90
28532;DHT22;15738;44.860;10.066;2023-04-22T07:39:55;20.70;99.90
28532;DHT22;15738;44.860;10.066;2023-04-22T07:45:58;20.90;99.90
28532;DHT22;15738;44.860;10.066;2023-04-22T07:48:44;20.70;99.90
28532;DHT22;15738;44.860;10.066;2023-04-22T07:51:30;20.80;99.90
28532;DHT22;15738;44.860;10.066;2023-04-22T07:54:15;20.90;99.90
28532;DHT22;15738;44.860;10.066;2023-04-22T07:57:01;21.00;99.90
28532;DHT22;15738;44.860;10.066;2023-04-22T07:59:47;21.10;99.90
28532;DHT22;15738;44.860;10.066;2023-04-22T08:02:34;21.10;99.90
28532;DHT22;15738;44.860;10.066;2023-04-22T08:05:20;21.10;99.90
28532;DHT22;15738;44.860;10.066;2023-04-22T08:08:06;21.30;99.90
28532;DHT22;15738;44.860;10.066;2023-04-22T08:10:52;21.20;99.90
28532;DHT22;15738;44.860;10.066;2023-04-22T08:13:38;21.30;99.90
28532;DHT22;15738;44.860;10.066;2023-04-22T08:16:23;21.30;99.90
28532;DHT22;15738;44.860;10.066;2023-04-22T08:19:09;21.50;99.90
28532;DHT22;15738;44.860;10.066;2023-04-22T08:21:55;21.60;99.90
28532;DHT22;15738;44.860;10.066;2023-04-22T08:24:42;21.80;99.90
28532;DHT22;15738;44.860;10.066;2023-04-22T08:27:28;22.00;99.90
28532;DHT22;15738;44.860;10.066;2023-04-22T08:30:15;22.20;99.90
28532;DHT22;15738;44.860;10.066;2023-04-22T08:33:01;22.20;99.90
28532;DHT22;15738;44.860;10.066;2023-04-22T08:35:47;22.10;99.90
28532;DHT22;15738;44.860;10.066;2023-04-22T08:38:33;22.00;99.90
28532;DHT22;15738;44.860;10.066;2023-04-22T08:41:19;22.00;99.90
28532;DHT22;15738;44.860;10.066;2023-04-22T08:44:06;22.30;99.90
28532;DHT22;15738;44.860;10.066;2023-04-22T08:46:52;22.30;99.90
28532;DHT22;15738;44.860;10.066;2023-04-22T08:49:38;22.30;99.90
28532;DHT22;15738;44.860;10.066;2023-04-22T08:52:24;22.10;99.90
28532;DHT22;15738;44.860;10.066;2023-04-22T08:55:10;22.20;99.90
28532;DHT22;15738;44.860;10.066;2023-04-22T08:57:55;22.00;99.90
28532;DHT22;15738;44.860;10.066;2023-04-22T09:00:42;21.90;99.90
28532;DHT22;15738;44.860;10.066;2023-04-22T09:03:28;21.80;99.90
28532;DHT22;15738;44.860;10.066;2023-04-22T09:06:13;21.80;99.90
28532;DHT22;15738;44.860;10.066;2023-04-22T09:09:00;22.00;99.90
28532;DHT22;15738;44.860;10.066;2023-04-22T09:11:46;22.00;99.90
28532;DHT22;15738;44.860;10.066;2023-04-22T09:14:32;21.80;99.90
28532;DHT22;15738;44.860;10.066;2023-04-22T09:17:24;21.80;99.90
28532;DHT22;15738;44.860;10.066;2023-04-22T09:20:13;21.70;99.90
28532;DHT22;15738;44.860;10.066;2023-04-22T09:23:01;21.70;99.90
28532;DHT22;15738;44.860;10.066;2023-04-22T09:25:47;21.90;99.90
28532;DHT22;15738;44.860;10.066;2023-04-22T09:28:33;22.10;99.90
28532;DHT22;15738;44.860;10.066;2023-04-22T09:31:21;22.20;99.90
28532;DHT22;15738;44.860;10.066;2023-04-22T09:34:08;22.20;99.90
28532;DHT22;15738;44.860;10.066;2023-04-22T09:36:53;21.90;99.90
28532;DHT22;15738;44.860;10.066;2023-04-22T09:39:41;21.90;99.90
28532;DHT22;15738;44.860;10.066;2023-04-22T09:42:26;21.90;99.90
28532;DHT22;15738;44.860;10.066;2023-04-22T09:45:12;21.70;99.90
28532;DHT22;15738;44.860;10.066;2023-04-22T09:48:07;21.60;99.90
28532;DHT22;15738;44.860;10.066;2023-04-22T09:50:54;21.60;99.90
28532;DHT22;15738;44.860;10.066;2023-04-22T09:53:39;21.60;99.90
28532;DHT22;15738;44.860;10.066;2023-04-22T09:56:41;21.50;99.90
28532;DHT22;15738;44.860;10.066;2023-04-22T09:59:28;21.50;99.90
28532;DHT22;15738;44.860;10.066;2023-04-22T10:02:14;21.60;99.90
28532;DHT22;15738;44.860;10.066;2023-04-22T10:05:00;21.70;99.90
28532;DHT22;15738;44.860;10.066;2023-04-22T10:07:46;21.50;99.90
28532;DHT22;15738;44.860;10.066;2023-04-22T10:10:34;21.20;99.90
28532;DHT22;15738;44.860;10.066;2023-04-22T10:13:20;21.20;99.90
28532;DHT22;15738;44.860;10.066;2023-04-22T10:16:06;21.10;99.90
28532;DHT22;15738;44.860;10.066;2023-04-22T10:18:53;21.00;99.90
28532;DHT22;15738;44.860;10.066;2023-04-22T10:21:45;20.90;99.90
28532;DHT22;15738;44.860;10.066;2023-04-22T10:24:35;20.80;99.90
28532;DHT22;15738;44.860;10.066;2023-04-22T10:27:22;20.90;99.90
28532;DHT22;15738;44.860;10.066;2023-04-22T10:30:10;21.00;99.90
28532;DHT22;15738;44.860;10.066;2023-04-22T10:41:44;21.00;99.90
28532;DHT22;15738;44.860;10.066;2023-04-22T10:44:44;20.70;99.90
28532;DHT22;15738;44.860;10.066;2023-04-22T10:47:34;20.60;99.90
28532;DHT22;15738;44.860;10.066;2023-04-22T10:50:23;20.80;99.90
28532;DHT22;15738;44.860;10.066;2023-04-22T10:56:15;21.30;99.90
28532;DHT22;15738;44.860;10.066;2023-04-22T10:59:14;21.40;99.90
28532;DHT22;15738;44.860;10.066;2023-04-22T11:02:00;21.30;99.90
28532;DHT22;15738;44.860;10.066;2023-04-22T11:04:46;21.20;99.90
28532;DHT22;15738;44.860;10.066;2023-04-22T11:07:31;21.20;99.90
28532;DHT22;15738;44.860;10.066;2023-04-22T11:13:15;20.90;99.90
28532;DHT22;15738;44.860;10.066;2023-04-22T11:16:00;21.10;99.90
28532;DHT22;15738;44.860;10.066;2023-04-22T11:18:47;21.00;99.90
28532;DHT22;15738;44.860;10.066;2023-04-22T11:21:33;21.00;99.90
28532;DHT22;15738;44.860;10.066;2023-04-22T11:24:18;21.10;99.90
28532;DHT22;15738;44.860;10.066;2023-04-22T11:27:05;21.10;99.90
28532;DHT22;15738;44.860;10.066;2023-04-22T11:30:01;21.10;99.90
28532;DHT22;15738;44.860;10.066;2023-04-22T11:32:48;21.10;99.90
28532;DHT22;15738;44.860;10.066;2023-04-22T11:35:34;21.20;99.90
28532;DHT22;15738;44.860;10.066;2023-04-22T11:38:20;21.20;99.90
28532;DHT22;15738;44.860;10.066;2023-04-22T11:41:05;21.30;99.90
28532;DHT22;15738;44.860;10.066;2023-04-22T11:43:51;21.60;99.90
28532;DHT22;15738;44.860;10.066;2023-04-22T11:46:39;21.70;99.90
28532;DHT22;15738;44.860;10.066;2023-04-22T11:49:31;21.90;99.90
28532;DHT22;15738;44.860;10.066;2023-04-22T11:52:17;22.00;99.90
28532;DHT22;15738;44.860;10.066;2023-04-22T11:55:04;22.20;99.90
28532;DHT22;15738;44.860;10.066;2023-04-22T11:58:00;22.20;99.90
28532;DHT22;15738;44.860;10.066;2023-04-22T12:00:46;22.30;99.90
28532;DHT22;15738;44.860;10.066;2023-04-22T12:03:32;22.20;99.90
28532;DHT22;15738;44.860;10.066;2023-04-22T12:06:18;22.20;99.90
28532;DHT22;15738;44.860;10.066;2023-04-22T12:09:04;22.00;99.90
28532;DHT22;15738;44.860;10.066;2023-04-22T12:11:51;21.80;99.90
28532;DHT22;15738;44.860;10.066;2023-04-22T12:14:37;21.40;99.90
28532;DHT22;15738;44.860;10.066;2023-04-22T12:17:23;21.20;99.90
28532;DHT22;15738;44.860;10.066;2023-04-22T12:24:15;21.40;99.90
28532;DHT22;15738;44.860;10.066;2023-04-22T12:27:47;21.40;99.90
28532;DHT22;15738;44.860;10.066;2023-04-22T12:30:32;21.40;99.90
28532;DHT22;15738;44.860;10.066;2023-04-22T12:33:18;21.50;99.90
28532;DHT22;15738;44.860;10.066;2023-04-22T12:36:04;21.60;99.90
28532;DHT22;15738;44.860;10.066;2023-04-22T12:38:50;21.60;99.90
28532;DHT22;15738;44.860;10.066;2023-04-22T12:41:35;21.70;99.90
28532;DHT22;15738;44.860;10.066;2023-04-22T12:44:21;21.70;99.90
28532;DHT22;15738;44.860;10.066;2023-04-22T12:47:09;21.80;99.90
28532;DHT22;15738;44.860;10.066;2023-04-22T12:49:55;21.90;99.90
28532;DHT22;15738;44.860;10.066;2023-04-22T12:52:41;21.90;99.90
28532;DHT22;15738;44.860;10.066;2023-04-22T12:55:27;22.00;99.90
28532;DHT22;15738;44.860;10.066;2023-04-22T12:58:12;22.10;99.90
28532;DHT22;15738;44.860;10.066;2023-04-22T13:00:58;22.10;99.90
28532;DHT22;15738;44.860;10.066;2023-04-22T13:03:44;21.90;99.90
28532;DHT22;15738;44.860;10.066;2023-04-22T13:06:30;21.80;99.90
28532;DHT22;15738;44.860;10.066;2023-04-22T13:09:17;21.90;99.90
28532;DHT22;15738;44.860;10.066;2023-04-22T13:12:02;21.80;99.90
28532;DHT22;15738;44.860;10.066;2023-04-22T13:14:48;21.80;99.90
28532;DHT22;15738;44.860;10.066;2023-04-22T13:17:33;21.60;99.90
28532;DHT22;15738;44.860;10.066;2023-04-22T13:20:19;21.50;99.90
28532;DHT22;15738;44.860;10.066;2023-04-22T13:23:05;21.40;99.90
28532;DHT22;15738;44.860;10.066;2023-04-22T13:25:52;21.40;99.90
28532;DHT22;15738;44.860;10.066;2023-04-22T13:28:38;21.40;99.90
28532;DHT22;15738;44.860;10.066;2023-04-22T13:31:23;21.20;99.90
28532;DHT22;15738;44.860;10.066;2023-04-22T13:34:10;21.30;99.90
28532;DHT22;15738;44.860;10.066;2023-04-22T13:36:56;21.50;99.90
28532;DHT22;15738;44.860;10.066;2023-04-22T13:39:42;21.70;99.90
28532;DHT22;15738;44.860;10.066;2023-04-22T13:42:27;21.80;99.90
28532;DHT22;15738;44.860;10.066;2023-04-22T13:45:14;21.70;99.90
28532;DHT22;15738;44.860;10.066;2023-04-22T13:47:59;21.60;99.90
28532;DHT22;15738;44.860;10.066;2023-04-22T13:50:45;21.60;99.90
28532;DHT22;15738;44.860;10.066;2023-04-22T13:53:31;21.40;99.90
28532;DHT22;15738;44.860;10.066;2023-04-22T13:56:19;21.30;99.90
28532;DHT22;15738;44.860;10.066;2023-04-22T13:59:04;21.20;99.90
28532;DHT22;15738;44.860;10.066;2023-04-22T14:01:50;21.20;99.90
28532;DHT22;15738;44.860;10.066;2023-04-22T14:04:35;21.20;99.90
28532;DHT22;15738;44.860;10.066;2023-04-22T14:07:21;21.20;99.90
28532;DHT22;15738;44.860;10.066;2023-04-22T14:10:08;21.20;99.90
28532;DHT22;15738;44.860;10.066;2023-04-22T14:12:56;21.30;99.90
28532;DHT22;15738;44.860;10.066;2023-04-22T14:15:42;21.20;99.90
28532;DHT22;15738;44.860;10.066;2023-04-22T14:18:29;21.30;99.90
28532;DHT22;15738;44.860;10.066;2023-04-22T14:21:15;21.40;99.90
28532;DHT22;15738;44.860;10.066;2023-04-22T14:24:01;21.40;99.90
28532;DHT22;15738;44.860;10.066;2023-04-22T14:26:47;21.40;99.90
28532;DHT22;15738;44.860;10.066;2023-04-22T14:29:33;21.40;99.90
28532;DHT22;15738;44.860;10.066;2023-04-22T14:32:19;21.50;99.90
28532;DHT22;15738;44.860;10.066;2023-04-22T14:35:05;21.60;99.90
28532;DHT22;15738;44.860;10.066;2023-04-22T14:37:50;21.50;99.90
28532;DHT22;15738;44.860;10.066;2023-04-22T14:40:36;21.50;99.90
28532;DHT22;15738;44.860;10.066;2023-04-22T14:43:22;21.50;99.90
28532;DHT22;15738;44.860;10.066;2023-04-22T14:46:10;21.40;99.90
28532;DHT22;15738;44.860;10.066;2023-04-22T14:48:55;21.50;99.90
28532;DHT22;15738;44.860;10.066;2023-04-22T14:51:41;21.40;99.90
28532;DHT22;15738;44.860;10.066;2023-04-22T14:54:27;21.50;99.90
28532;DHT22;15738;44.860;10.066;2023-04-22T14:57:13;21.50;99.90
28532;DHT22;15738;44.860;10.066;2023-04-22T14:59:58;21.50;99.90
28532;DHT22;15738;44.860;10.066;2023-04-22T15:02:44;21.60;99.90
28532;DHT22;15738;44.860;10.066;2023-04-22T15:05:30;21.60;99.90
28532;DHT22;15738;44.860;10.066;2023-04-22T15:08:15;21.50;99.90
28532;DHT22;15738;44.860;10.066;2023-04-22T15:11:01;21.50;99.90
28532;DHT22;15738;44.860;10.066;2023-04-22T15:13:46;21.40;99.90
28532;DHT22;15738;44.860;10.066;2023-04-22T15:16:32;21.40;99.90
28532;DHT22;15738;44.860;10.066;2023-04-22T15:19:18;21.50;99.90
28532;DHT22;15738;44.860;10.066;2023-04-22T15:22:03;21.50;99.90
28532;DHT22;15738;44.860;10.066;2023-04-22T15:24:49;21.60;99.90
28532;DHT22;15738;44.860;10.066;2023-04-22T15:27:36;21.60;99.90
28532;DHT22;15738;44.860;10.066;2023-04-22T15:30:22;21.60;99.90
28532;DHT22;15738;44.860;10.066;2023-04-22T15:33:08;21.60;99.90
28532;DHT22;15738;44.860;10.066;2023-04-22T15:35:53;21.50;99.90
28532;DHT22;15738;44.860;10.066;2023-04-22T15:38:39;21.30;99.90
28532;DHT22;15738;44.860;10.066;2023-04-22T15:41:25;21.10;99.90
28532;DHT22;15738;44.860;10.066;2023-04-22T15:44:11;21.10;99.90
28532;DHT22;15738;44.860;10.066;2023-04-22T15:46:57;21.10;99.90
28532;DHT22;15738;44.860;10.066;2023-04-22T15:49:43;21.00;99.90
28532;DHT22;15738;44.860;10.066;2023-04-22T15:52:29;21.00;99.90
28532;DHT22;15738;44.860;10.066;2023-04-22T15:55:15;21.00;99.90
28532;DHT22;15738;44.860;10.066;2023-04-22T15:58:01;20.90;99.90
28532;DHT22;15738;44.860;10.066;2023-04-22T16:00:46;20.90;99.90
28532;DHT22;15738;44.860;10.066;2023-04-22T16:03:32;20.80;99.90
28532;DHT22;15738;44.860;10.066;2023-04-22T16:06:18;20.90;99.90
28532;DHT22;15738;44.860;10.066;2023-04-22T16:09:04;20.80;99.90
28532;DHT22;15738;44.860;10.066;2023-04-22T16:11:50;20.80;99.90
28532;DHT22;15738;44.860;10.066;2023-04-22T16:14:37;20.90;99.90
28532;DHT22;15738;44.860;10.066;2023-04-22T16:17:22;20.90;99.90
28532;DHT22;15738;44.860;10.066;2023-04-22T16:20:08;20.90;99.90
28532;DHT22;15738;44.860;10.066;2023-04-22T16:22:54;20.90;99.90
28532;DHT22;15738;44.860;10.066;2023-04-22T16:25:40;20.90;99.90
28532;DHT22;15738;44.860;10.066;2023-04-22T16:28:26;20.80;99.90
28532;DHT22;15738;44.860;10.066;2023-04-22T16:31:12;20.80;99.90
28532;DHT22;15738;44.860;10.066;2023-04-22T16:33:58;20.80;99.90
28532;DHT22;15738;44.860;10.066;2023-04-22T16:36:43;20.80;99.90
28532;DHT22;15738;44.860;10.066;2023-04-22T16:39:29;20.80;99.90
28532;DHT22;15738;44.860;10.066;2023-04-22T16:42:18;20.80;99.90
28532;DHT22;15738;44.860;10.066;2023-04-22T16:45:16;20.70;99.90
28532;DHT22;15738;44.860;10.066;2023-04-22T16:48:06;20.70;99.90
28532;DHT22;15738;44.860;10.066;2023-04-22T16:50:52;20.60;99.90
28532;DHT22;15738;44.860;10.066;2023-04-22T16:53:38;20.60;99.90
28532;DHT22;15738;44.860;10.066;2023-04-22T16:56:24;20.60;99.90
28532;DHT22;15738;44.860;10.066;2023-04-22T16:59:10;20.50;99.90
28532;DHT22;15738;44.860;10.066;2023-04-22T17:01:59;20.50;99.90
28532;DHT22;15738;44.860;10.066;2023-04-22T17:04:46;20.60;99.90
28532;DHT22;15738;44.860;10.066;2023-04-22T17:07:31;20.50;99.90
28532;DHT22;15738;44.860;10.066;2023-04-22T17:10:17;20.50;99.90
28532;DHT22;15738;44.860;10.066;2023-04-22T17:13:03;20.50;99.90
28532;DHT22;15738;44.860;10.066;2023-04-22T17:15:49;20.40;99.90
28532;DHT22;15738;44.860;10.066;2023-04-22T17:18:35;20.40;99.90
28532;DHT22;15738;44.860;10.066;2023-04-22T17:21:21;20.40;99.90
28532;DHT22;15738;44.860;10.066;2023-04-22T17:24:10;20.40;99.90
28532;DHT22;15738;44.860;10.066;2023-04-22T17:26:58;20.40;99.90
28532;DHT22;15738;44.860;10.066;2023-04-22T17:29:44;20.40;99.90
28532;DHT22;15738;44.860;10.066;2023-04-22T17:32:30;20.30;99.90
28532;DHT22;15738;44.860;10.066;2023-04-22T17:35:16;20.40;99.90
28532;DHT22;15738;44.860;10.066;2023-04-22T17:38:02;20.30;99.90
28532;DHT22;15738;44.860;10.066;2023-04-22T17:40:47;20.20;99.90